createdAt,value
2022-12-17T00:01:24.678Z,96847.66
2022-12-17T00:04:11.987Z,96846.88
2022-12-17T00:06:58.500Z,96834.12
2022-12-17T00:09:50.103Z,96834.76
2022-12-17T00:12:34.093Z,96838.77
2022-12-17T00:15:20.726Z,96837.51
2022-12-17T00:18:10.664Z,96829.81
2022-12-17T00:20:57.743Z,96835.16
2022-12-17T00:23:45.267Z,96831.93
2022-12-17T00:26:40.492Z,96827.98
2022-12-17T00:29:28.521Z,96824.31
2022-12-17T00:32:16.994Z,96823.05
2022-12-17T00:35:03.247Z,96809.66
2022-12-17T00:50:41.010Z,96794.11
2022-12-17T00:53:27.421Z,96791.62
2022-12-17T00:56:13.873Z,96791.46
2022-12-17T00:59:02.582Z,96781.06
2022-12-17T01:01:48.267Z,96775.48
2022-12-17T01:04:33.892Z,96782.95
2022-12-17T01:07:19.917Z,96781.84
2022-12-17T01:10:06.934Z,96776.50
2022-12-17T01:12:53.599Z,96784.52
2022-12-17T01:15:41.615Z,96779.98
2022-12-17T01:18:27.987Z,96780.44
2022-12-17T01:21:15.442Z,96781.77
2022-12-17T01:24:01.337Z,96789.02
2022-12-17T01:26:47.300Z,96791.91
2022-12-17T01:29:32.581Z,96803.39
2022-12-17T01:32:18.430Z,96804.20
2022-12-17T01:35:04.321Z,96799.16
2022-12-17T01:37:49.993Z,96792.24
2022-12-17T01:40:35.526Z,96794.77
2022-12-17T01:43:23.206Z,96790.37
2022-12-17T01:46:09.843Z,96781.31
2022-12-17T01:49:00.149Z,96780.75
2022-12-17T01:51:48.135Z,96774.22
2022-12-17T01:54:35.377Z,96770.92
2022-12-17T01:57:24.352Z,96772.11
2022-12-17T02:00:21.475Z,96771.94
2022-12-17T02:03:07.579Z,96773.35
2022-12-17T02:06:14.235Z,96772.39
2022-12-17T02:09:47.669Z,96778.38
2022-12-17T02:12:56.732Z,96777.97
2022-12-17T02:15:54.171Z,96771.35
2022-12-17T02:18:47.393Z,96766.15
2022-12-17T02:21:33.237Z,96776.52
2022-12-17T02:24:59.801Z,96768.41
2022-12-17T02:27:48.829Z,96772.35
2022-12-17T02:30:37.334Z,96777.93
2022-12-17T02:33:25.309Z,96781.39
2022-12-17T02:43:07.539Z,96779.41
2022-12-17T02:45:55.444Z,96776.96
2022-12-17T02:48:43.008Z,96778.63
2022-12-17T02:51:29.991Z,96785.55
2022-12-17T02:54:22.382Z,96778.86
2022-12-17T02:57:12.027Z,96780.20
2022-12-17T02:59:57.887Z,96770.05
2022-12-17T03:02:44.032Z,96774.84
2022-12-17T03:05:47.547Z,96769.27
2022-12-17T03:08:19.743Z,96768.23
2022-12-17T03:11:05.879Z,96766.11
2022-12-17T03:13:52.099Z,96765.66
2022-12-17T03:16:38.424Z,96767.08
2022-12-17T03:19:24.444Z,96759.69
2022-12-17T03:22:10.573Z,96752.30
2022-12-17T03:24:56.470Z,96747.34
2022-12-17T03:27:43.765Z,96745.86
2022-12-17T03:30:34.553Z,96743.27
2022-12-17T03:33:18.032Z,96742.56
2022-12-17T03:36:04.126Z,96742.41
2022-12-17T03:38:49.744Z,96741.41
2022-12-17T03:41:35.217Z,96736.05
2022-12-17T03:44:21.286Z,96733.61
2022-12-17T03:47:07.272Z,96738.66
2022-12-17T03:49:52.854Z,96742.56
2022-12-17T03:52:38.568Z,96736.66
2022-12-17T03:55:24.932Z,96744.60
2022-12-17T03:58:01.902Z,96742.16
2022-12-17T04:07:51.724Z,96733.34
2022-12-17T04:10:47.409Z,96731.56
2022-12-17T04:13:38.790Z,96726.51
2022-12-17T04:16:45.164Z,96718.81
2022-12-17T04:19:31.511Z,96718.34
2022-12-17T04:22:17.677Z,96722.61
2022-12-17T04:25:04.454Z,96729.52
2022-12-17T04:27:52.097Z,96733.20
2022-12-17T04:30:38.791Z,96737.69
2022-12-17T04:33:35.135Z,96739.81
2022-12-17T04:36:26.354Z,96733.60
2022-12-17T04:39:12.576Z,96731.37
2022-12-17T04:42:07.888Z,96724.38
2022-12-17T04:44:54.393Z,96732.63
2022-12-17T04:47:41.211Z,96733.08
2022-12-17T04:50:27.222Z,96750.17
2022-12-17T04:53:27.135Z,96757.09
2022-12-17T04:56:15.562Z,96768.05
2022-12-17T04:59:01.576Z,96780.53
2022-12-17T05:01:47.527Z,96795.17
2022-12-17T05:04:33.150Z,96812.34
2022-12-17T05:07:19.120Z,96818.00
2022-12-17T05:10:05.098Z,96835.09
2022-12-17T05:12:50.781Z,96840.44
2022-12-17T05:15:36.728Z,96843.34
2022-12-17T05:18:09.637Z,96852.16
2022-12-17T05:20:56.278Z,96862.38
2022-12-17T05:23:41.933Z,96860.25
2022-12-17T05:26:46.263Z,96869.39
2022-12-17T05:29:56.967Z,96868.84
2022-12-17T05:32:43.115Z,96869.62
2022-12-17T05:35:29.339Z,96873.63
2022-12-17T05:38:26.871Z,96873.08
2022-12-17T05:41:17.712Z,96870.73
2022-12-17T05:44:21.446Z,96871.22
2022-12-17T05:46:53.864Z,96866.95
2022-12-17T05:49:40.453Z,96871.22
2022-12-17T05:52:44.545Z,96869.88
2022-12-17T05:55:31.120Z,96871.22
2022-12-17T05:58:27.550Z,96876.56
2022-12-17T06:01:19.460Z,96874.75
2022-12-17T06:04:05.799Z,96878.98
2022-12-17T06:06:52.493Z,96881.10
2022-12-17T06:09:40.342Z,96883.78
2022-12-17T06:12:26.895Z,96883.78
2022-12-17T06:15:12.893Z,96886.71
2022-12-17T06:17:58.867Z,96892.63
2022-12-17T06:20:44.746Z,96903.00
2022-12-17T06:23:30.281Z,96893.08
2022-12-17T06:26:16.633Z,96900.55
2022-12-17T06:29:04.488Z,96901.43
2022-12-17T06:31:50.643Z,96907.23
2022-12-17T06:34:37.340Z,96905.34
2022-12-17T06:37:24.020Z,96903.48
2022-12-17T06:40:12.207Z,96906.94
2022-12-17T06:42:58.261Z,96913.30
2022-12-17T06:45:44.247Z,96904.64
2022-12-17T06:48:30.499Z,96898.73
2022-12-17T06:51:16.547Z,96895.76
2022-12-17T06:54:02.332Z,96891.19
2022-12-17T06:56:48.642Z,96902.12
2022-12-17T06:59:34.502Z,96897.25
2022-12-17T07:02:20.463Z,96897.70
2022-12-17T07:05:07.111Z,96900.08
2022-12-17T07:07:54.271Z,96903.28
2022-12-17T07:10:41.639Z,96903.44
2022-12-17T07:13:28.382Z,96901.31
2022-12-17T07:16:14.501Z,96898.34
2022-12-17T07:19:00.341Z,96895.33
2022-12-17T07:21:46.261Z,96898.72
2022-12-17T07:24:32.514Z,96897.38
2022-12-17T07:27:17.955Z,96885.81
2022-12-17T07:30:11.283Z,96887.60
2022-12-17T07:32:57.705Z,96892.88
2022-12-17T07:35:43.804Z,96886.81
2022-12-17T07:38:30.029Z,96884.36
2022-12-17T07:41:17.796Z,96906.39
2022-12-17T07:44:03.880Z,96896.38
2022-12-17T07:46:49.671Z,96904.81
2022-12-17T07:49:37.055Z,96911.55
2022-12-17T07:52:23.455Z,96908.16
2022-12-17T07:55:14.199Z,96903.17
2022-12-17T07:57:58.123Z,96898.11
2022-12-17T08:00:49.144Z,96898.87
2022-12-17T08:03:32.433Z,96891.34
2022-12-17T08:06:19.463Z,96890.63
2022-12-17T08:09:05.452Z,96893.11
2022-12-17T08:11:51.121Z,96897.19
2022-12-17T08:14:36.523Z,96882.58
2022-12-17T08:17:24.707Z,96883.28
2022-12-17T08:20:10.760Z,96887.24
2022-12-17T08:22:57.366Z,96888.30
2022-12-17T08:25:43.337Z,96900.42
2022-12-17T08:31:18.703Z,96886.08
2022-12-17T08:34:07.989Z,96890.93
2022-12-17T08:36:54.810Z,96885.02
2022-12-17T08:39:40.596Z,96890.12
2022-12-17T08:42:26.335Z,96872.81
2022-12-17T08:45:12.319Z,96875.11
2022-12-17T08:48:03.656Z,96869.69
2022-12-17T08:50:46.611Z,96858.30
2022-12-17T08:53:35.071Z,96850.48
2022-12-17T08:56:23.294Z,96852.98
2022-12-17T08:59:07.966Z,96856.35
2022-12-17T09:01:54.038Z,96852.01
2022-12-17T09:04:46.440Z,96859.74
2022-12-17T09:07:34.693Z,96858.09
2022-12-17T09:10:20.486Z,96866.67
2022-12-17T09:13:06.461Z,96863.11
2022-12-17T09:15:53.035Z,96866.58
2022-12-17T09:18:42.329Z,96865.45
2022-12-17T09:21:28.271Z,96861.98
2022-12-17T09:24:14.619Z,96866.36
2022-12-17T09:26:50.178Z,96863.11
2022-12-17T09:29:36.638Z,96869.05
2022-12-17T09:32:18.593Z,96868.02
2022-12-17T09:35:04.923Z,96871.83
2022-12-17T09:37:52.414Z,96863.55
2022-12-17T09:40:42.217Z,96864.90
2022-12-17T09:43:43.194Z,96863.87
2022-12-17T09:47:18.710Z,96858.28
2022-12-17T09:50:05.743Z,96860.75
2022-12-17T09:52:54.699Z,96867.12
2022-12-17T09:56:08.899Z,96869.48
2022-12-17T09:58:58.255Z,96866.24
2022-12-17T10:01:51.638Z,96876.08
2022-12-17T10:04:52.512Z,96870.39
2022-12-17T10:07:46.367Z,96871.39
2022-12-17T10:10:48.765Z,96871.39
2022-12-17T10:13:42.424Z,96874.32
2022-12-17T10:16:54.645Z,96881.47
2022-12-17T10:19:57.972Z,96887.53
2022-12-17T10:22:46.319Z,96886.88
2022-12-17T10:25:40.329Z,96889.46
2022-12-17T10:28:34.915Z,96888.80
2022-12-17T10:31:35.067Z,96895.86
2022-12-17T10:34:36.265Z,96890.13
2022-12-17T10:37:23.666Z,96891.59
2022-12-17T10:40:22.443Z,96894.41
2022-12-17T10:43:06.076Z,96895.30
2022-12-17T10:45:55.175Z,96899.23
2022-12-17T10:48:47.090Z,96904.30
2022-12-17T10:52:01.791Z,96901.26
2022-12-17T10:54:51.632Z,96908.31
2022-12-17T10:57:59.937Z,96914.72
2022-12-17T11:00:52.374Z,96924.34
2022-12-17T11:03:53.039Z,96931.84
2022-12-17T11:06:42.929Z,96943.94
2022-12-17T11:09:49.171Z,96950.66
2022-12-17T11:12:37.969Z,96948.88
2022-12-17T11:15:38.687Z,96955.35
2022-12-17T11:18:36.478Z,96965.67
2022-12-17T11:21:44.911Z,96979.77
2022-12-17T11:24:44.131Z,96986.58
2022-12-17T11:27:35.626Z,97000.36
2022-12-17T11:30:31.923Z,97005.83
2022-12-17T11:33:35.785Z,96998.43
2022-12-17T11:36:39.544Z,97008.05
2022-12-17T11:46:02.986Z,97015.61
2022-12-17T11:49:01.073Z,97021.11
2022-12-17T11:51:57.415Z,97030.60
2022-12-17T11:58:14.654Z,97028.44
2022-12-17T12:01:09.108Z,97027.44
2022-12-17T12:04:23.873Z,97033.20
2022-12-17T12:24:12.917Z,97104.78
2022-12-17T12:27:22.528Z,97116.50
2022-12-17T12:30:19.518Z,97122.52
2022-12-17T12:33:16.713Z,97131.46
2022-12-17T12:36:12.060Z,97138.90
2022-12-17T12:39:02.235Z,97146.33
2022-12-17T12:42:30.244Z,97148.87
2022-12-17T12:45:52.253Z,97148.58
2022-12-17T12:48:56.547Z,97153.66
2022-12-17T12:51:46.996Z,97165.92
2022-12-17T12:55:07.028Z,97177.62
2022-12-17T12:58:03.591Z,97184.81
2022-12-17T13:01:00.527Z,97200.98
2022-12-17T13:04:04.302Z,97209.05
2022-12-17T13:06:50.542Z,97217.41
2022-12-17T13:09:35.010Z,97222.98
2022-12-17T13:12:17.497Z,97225.35
2022-12-17T13:14:53.904Z,97235.13
2022-12-17T13:17:35.419Z,97241.41
2022-12-17T13:20:29.625Z,97247.56
2022-12-17T13:23:15.728Z,97253.28
2022-12-17T13:26:05.664Z,97266.51
2022-12-17T13:28:34.070Z,97275.67
2022-12-17T13:31:05.387Z,97279.91
2022-12-17T13:33:42.103Z,97277.67
2022-12-17T13:36:38.998Z,97283.18
2022-12-17T13:39:10.028Z,97296.39
2022-12-17T13:41:38.208Z,97299.62
2022-12-17T13:44:37.201Z,97309.98
2022-12-17T13:47:12.012Z,97317.13
2022-12-17T13:49:51.204Z,97332.20
2022-12-17T13:52:20.417Z,97339.08
2022-12-17T13:54:58.111Z,97344.12
2022-12-17T13:57:28.108Z,97345.91
2022-12-17T13:59:58.943Z,97353.25
2022-12-17T14:02:34.409Z,97359.02
2022-12-17T14:05:08.334Z,97365.74
2022-12-17T14:07:39.282Z,97361.88
2022-12-17T14:10:20.710Z,97377.75
2022-12-17T14:12:49.550Z,97377.02
2022-12-17T14:15:28.116Z,97389.78
2022-12-17T14:17:58.342Z,97404.36
2022-12-17T14:20:29.291Z,97406.39
2022-12-17T14:23:05.498Z,97415.09
2022-12-17T14:25:39.067Z,97412.02
2022-12-17T14:28:23.763Z,97413.48
2022-12-17T14:31:25.596Z,97421.33
2022-12-17T14:33:30.800Z,97427.55
2022-12-17T14:36:18.692Z,97431.05
2022-12-17T14:38:59.914Z,97438.50
2022-12-17T14:41:50.151Z,97449.45
2022-12-17T14:44:22.635Z,97444.94
2022-12-17T14:47:14.314Z,97450.52
2022-12-17T14:50:07.707Z,97454.79
2022-12-17T14:52:42.614Z,97455.64
2022-12-17T14:55:35.156Z,97457.31
2022-12-17T14:58:16.198Z,97461.86
2022-12-17T15:01:01.259Z,97459.77
2022-12-17T15:03:38.998Z,97471.30
2022-12-17T15:06:12.158Z,97462.53
2022-12-17T15:08:44.749Z,97470.81
2022-12-17T15:11:19.663Z,97468.72
2022-12-17T15:13:52.980Z,97471.69
2022-12-17T15:16:18.641Z,97478.61
2022-12-17T15:18:46.288Z,97474.05
2022-12-17T15:21:15.804Z,97481.55
2022-12-17T15:23:44.353Z,97487.40
2022-12-17T15:26:14.436Z,97490.67
2022-12-17T15:28:42.425Z,97489.36
2022-12-17T15:31:12.150Z,97499.73
2022-12-17T15:33:41.450Z,97507.73
2022-12-17T15:36:13.650Z,97517.38
2022-12-17T15:38:41.304Z,97525.38
2022-12-17T15:41:29.860Z,97533.14
2022-12-17T15:44:22.002Z,97544.61
2022-12-17T15:46:50.758Z,97550.98
2022-12-17T15:49:19.186Z,97561.89
2022-12-17T15:51:50.612Z,97565.66
2022-12-17T15:54:18.861Z,97569.95
2022-12-17T15:57:00.134Z,97572.34
2022-12-17T15:59:28.218Z,97576.65
2022-12-17T16:01:56.343Z,97576.41
2022-12-17T16:04:31.816Z,97584.41
2022-12-17T16:07:06.130Z,97588.13
2022-12-17T16:09:36.441Z,97593.77
2022-12-17T16:12:05.761Z,97598.64
2022-12-17T16:14:35.644Z,97614.13
2022-12-17T16:17:03.550Z,97615.23
2022-12-17T16:19:31.691Z,97620.91
2022-12-17T16:24:56.371Z,97616.14
2022-12-17T16:27:25.072Z,97621.79
2022-12-17T16:29:52.930Z,97628.77
2022-12-17T16:32:21.038Z,97633.33
2022-12-17T16:34:48.936Z,97633.40
2022-12-17T16:37:18.465Z,97645.98
2022-12-17T16:39:46.282Z,97657.74
2022-12-17T16:42:16.297Z,97666.86
2022-12-17T16:44:44.478Z,97669.07
2022-12-17T16:47:12.236Z,97677.97
2022-12-17T16:49:39.972Z,97672.70
2022-12-17T16:52:07.684Z,97682.30
2022-12-17T16:54:36.156Z,97679.16
2022-12-17T16:57:04.069Z,97682.13
2022-12-17T17:01:59.768Z,97693.40
2022-12-17T17:04:27.650Z,97708.34
2022-12-17T17:07:00.140Z,97709.67
2022-12-17T17:09:29.955Z,97719.80
2022-12-17T17:12:03.836Z,97720.34
2022-12-17T17:14:32.398Z,97733.70
2022-12-17T17:17:00.386Z,97728.38
2022-12-17T17:19:31.017Z,97725.75
2022-12-17T17:21:58.802Z,97722.30
2022-12-17T17:24:26.355Z,97725.77
2022-12-17T17:26:55.584Z,97726.60
2022-12-17T17:29:23.956Z,97722.91
2022-12-17T17:32:11.618Z,97726.64
2022-12-17T17:34:24.721Z,97725.31
2022-12-17T17:36:56.433Z,97722.66
2022-12-17T17:39:28.490Z,97736.00
2022-12-17T17:41:56.164Z,97731.22
2022-12-17T17:44:24.086Z,97741.08
2022-12-17T17:46:52.522Z,97743.20
2022-12-17T17:49:22.149Z,97746.94
2022-12-17T17:54:20.172Z,97752.00
2022-12-17T17:56:47.819Z,97756.79
2022-12-17T17:59:20.148Z,97764.23
2022-12-17T18:01:50.403Z,97760.27
2022-12-17T18:04:23.402Z,97760.81
2022-12-17T18:07:23.610Z,97759.77
2022-12-17T18:09:21.781Z,97760.84
2022-12-17T18:11:49.729Z,97769.36
2022-12-17T18:14:17.621Z,97760.58
2022-12-17T18:16:48.068Z,97765.36
2022-12-17T18:19:22.453Z,97770.97
2022-12-17T18:21:50.216Z,97774.67
2022-12-17T18:24:22.215Z,97781.08
2022-12-17T18:26:52.629Z,97782.94
2022-12-17T18:29:27.336Z,97783.73
2022-12-17T18:31:55.460Z,97795.98
2022-12-17T18:34:27.167Z,97803.67
2022-12-17T18:36:55.411Z,97808.20
2022-12-17T18:39:26.416Z,97812.20
2022-12-17T18:42:12.347Z,97811.66
2022-12-17T18:44:41.537Z,97820.97
2022-12-17T18:47:10.234Z,97829.75
2022-12-17T18:49:39.021Z,97832.95
2022-12-17T18:52:13.148Z,97833.74
2022-12-17T18:54:38.142Z,97843.84
2022-12-17T18:57:05.906Z,97858.74
2022-12-17T18:59:34.545Z,97868.05
2022-12-17T19:02:02.738Z,97874.17
2022-12-17T19:04:32.391Z,97876.55
2022-12-17T19:07:00.203Z,97876.55
2022-12-17T19:09:36.668Z,97883.75
2022-12-17T19:12:07.112Z,97892.27
2022-12-17T19:14:36.221Z,97893.84
2022-12-17T19:17:05.398Z,97897.03
2022-12-17T19:19:33.382Z,97897.86
2022-12-17T19:22:01.622Z,97898.11
2022-12-17T19:24:29.399Z,97909.81
2022-12-17T19:26:57.247Z,97918.08
2022-12-17T19:29:27.640Z,97916.20
2022-12-17T19:31:55.199Z,97926.85
2022-12-17T19:34:25.693Z,97932.42
2022-12-17T19:36:53.423Z,97939.34
2022-12-17T19:39:21.059Z,97940.41
2022-12-17T19:41:49.806Z,97948.92
2022-12-17T19:44:19.952Z,97946.53
2022-12-17T19:46:48.093Z,97946.80
2022-12-17T19:49:16.626Z,97947.31
2022-12-17T19:51:45.210Z,97954.49
2022-12-17T19:54:19.522Z,97965.41
2022-12-17T19:56:47.150Z,97959.28
2022-12-17T19:59:14.998Z,97963.80
2022-12-17T20:01:45.906Z,97965.11
2022-12-17T20:06:43.481Z,97973.08
2022-12-17T20:09:12.256Z,97975.19
2022-12-17T20:11:40.672Z,97977.33
2022-12-17T20:14:21.966Z,97981.84
2022-12-17T20:16:53.503Z,97981.30
2022-12-17T20:19:29.951Z,97990.34
2022-12-17T20:22:01.415Z,97982.88
2022-12-17T20:24:31.920Z,98001.73
2022-12-17T20:26:59.842Z,98007.59
2022-12-17T20:29:28.178Z,98009.42
2022-12-17T20:31:56.192Z,98026.44
2022-12-17T20:34:25.238Z,98027.23
2022-12-17T20:36:54.080Z,98034.92
2022-12-17T20:39:27.139Z,98041.02
2022-12-17T20:41:53.094Z,98039.68
2022-12-17T20:44:21.613Z,98040.22
2022-12-17T20:46:49.998Z,98043.65
2022-12-17T20:49:21.077Z,98051.34
2022-12-17T20:51:49.684Z,98053.73
2022-12-17T20:54:18.201Z,98059.07
2022-12-17T20:56:46.987Z,98058.53
2022-12-17T20:59:17.754Z,98068.37
2022-12-17T21:01:51.518Z,98069.44
2022-12-17T21:04:17.203Z,98077.92
2022-12-17T21:06:47.488Z,98084.52
2022-12-17T21:09:18.728Z,98094.06
2022-12-17T21:11:46.963Z,98089.25
2022-12-17T21:14:18.039Z,98104.91
2022-12-17T21:16:47.812Z,98105.70
2022-12-17T21:19:18.391Z,98108.36
2022-12-17T21:21:47.683Z,98117.38
2022-12-17T21:24:17.881Z,98113.39
2022-12-17T21:26:47.755Z,98118.11
2022-12-17T21:29:18.173Z,98117.53
2022-12-17T21:31:51.461Z,98112.46
2022-12-17T21:34:24.583Z,98120.93
2022-12-17T21:36:56.445Z,98122.77
2022-12-17T21:39:24.714Z,98122.77
2022-12-17T21:42:11.453Z,98132.34
2022-12-17T21:44:39.887Z,98130.22
2022-12-17T21:47:07.978Z,98133.68
2022-12-17T21:49:36.298Z,98138.16
2022-12-17T21:52:05.060Z,98145.86
2022-12-17T21:54:37.072Z,98150.91
2022-12-17T21:57:05.548Z,98164.72
2022-12-17T21:59:33.193Z,98176.40
2022-12-17T22:02:01.372Z,98183.59
2022-12-17T22:04:29.702Z,98181.47
2022-12-17T22:07:05.184Z,98184.89
2022-12-17T22:09:45.113Z,98187.28
2022-12-17T22:12:19.548Z,98189.94
2022-12-17T22:14:48.281Z,98187.81
2022-12-17T22:17:16.834Z,98191.80
2022-12-17T22:19:45.023Z,98193.13
2022-12-17T22:22:13.116Z,98199.47
2022-12-17T22:24:44.129Z,98200.00
2022-12-17T22:27:14.702Z,98201.03
2022-12-17T22:29:56.614Z,98208.70
2022-12-17T22:32:42.628Z,98213.97
2022-12-17T22:36:13.070Z,98220.34
2022-12-17T22:42:29.321Z,98224.05
2022-12-17T22:44:29.590Z,98231.48
2022-12-17T22:44:44.521Z,98228.00
2022-12-17T22:45:31.925Z,98241.23
2022-12-17T22:48:00.197Z,98242.19
2022-12-17T22:50:36.769Z,98244.00
2022-12-17T22:53:01.744Z,98257.27
2022-12-17T22:55:30.348Z,98255.37
2022-12-17T22:57:59.017Z,98264.09
2022-12-17T23:00:33.998Z,98262.98
2022-12-17T23:03:02.160Z,98262.41
2022-12-17T23:05:31.883Z,98270.11
2022-12-17T23:08:00.199Z,98269.09
2022-12-17T23:10:28.340Z,98276.26
2022-12-17T23:12:56.239Z,98273.86
2022-12-17T23:15:32.326Z,98267.77
2022-12-17T23:18:02.725Z,98274.97
2022-12-17T23:20:33.295Z,98273.91
2022-12-17T23:23:01.760Z,98280.28
2022-12-17T23:25:30.612Z,98278.45
2022-12-17T23:27:58.684Z,98284.08
2022-12-17T23:30:26.482Z,98287.83
2022-12-17T23:32:54.241Z,98295.80
2022-12-17T23:35:21.883Z,98296.86
2022-12-17T23:37:49.670Z,98299.52
2022-12-17T23:40:17.510Z,98312.06
2022-12-17T23:42:45.122Z,98312.61
2022-12-17T23:45:13.396Z,98312.38
2022-12-17T23:47:41.313Z,98311.58
2022-12-17T23:50:11.047Z,98312.91
2022-12-17T23:52:39.150Z,98314.77
2022-12-17T23:55:07.626Z,98323.30
2022-12-17T23:57:35.192Z,98318.30
